RUNWAY INFORMATION
Runway Length Width Elevation Displaced
Threshold
Heading | Runway Length Width Elevation Displaced
Threshold
Heading
12 7385 ft 148 ft 12 ft 0 ft 135 | 30 7385 ft 148 ft 13 ft 0 ft 315

 AIRPORT FREQUENCIES
Type ATIS Name ATIS Frequency 112.7 MHZ
Type CTAF Name CTAF Frequency 118.1 MHZ
Type FSS Name MELBOURNE Frequency 125.55 MHZ
Type TWR Name TWR Frequency 118.1 MHZ

 AIRPORT NEAR NAVIGATION AIDS
Type VOR-DME Name Hobart Frequency 112700 KHZ
Type NDB Name Hobart Frequency 362 KHZ
Type NDB Name Tea Tree Frequency 374 KHZ

 METAR AND TAF INFORMATION
METAR FOR YMHB
ADDS - METARS form results

(1453 UTC 05 August 2021)
Data provider http://aviationweather.gov/metar/data/
 
METAR text: YMHB 051430Z AUTO 33017KT 9999 // NCD 12/05 Q1008 RF00.0/000.0
Conditions at: YMHB (HOBART/TASMANIA , AU) observed 1430 UTC 05 August 2021
Temperature: 12.0°C (54°F)
Dewpoint: 5.0°C (41°F) [RH = 62%]
Pressure (altimeter): 29.76 inches Hg (1008.0 mb)
Winds: from the NNW (330 degrees) at 20 MPH (17 knots; 8.7 m/s)
Visibility: 6 or more miles (10+ km)
Ceiling: at least 12,000 feet AGL
Clouds: sky clear below 12,000 feet AGL
Weather: no significant weather observed at this time

METAR text: YMHB 051404Z AUTO 31017G30KT 9999 // NCD 12/05 Q1008 RF00/0/000/0
Conditions at: YMHB (HOBART/TASMANIA , AU) observed 1404 UTC 05 August 2021
Temperature: 12.0°C (54°F)
Dewpoint: 5.0°C (41°F) [RH = 62%]
Pressure (altimeter): 29.76 inches Hg (1008.0 mb)
Winds: from the NW (310 degrees) at 20 MPH (17 knots; 8.7 m/s)
gusting to 34 MPH (30 knots; 15.4 m/s)
Visibility: 6 or more miles (10+ km)
Ceiling: at least 12,000 feet AGL
Clouds: sky clear below 12,000 feet AGL
Weather: no significant weather observed at this time

METAR text: YMHB 051400Z AUTO 30017KT 9999 // NCD 12/04 Q1008
Conditions at: YMHB (HOBART/TASMANIA , AU) observed 1400 UTC 05 August 2021
Temperature: 12.0°C (54°F)
Dewpoint: 4.0°C (39°F) [RH = 58%]
Pressure (altimeter): 29.76 inches Hg (1008.0 mb)
Winds: from the WNW (300 degrees) at 20 MPH (17 knots; 8.7 m/s)
Visibility: 6 or more miles (10+ km)
Ceiling: at least 12,000 feet AGL
Clouds: sky clear below 12,000 feet AGL
Weather: no significant weather observed at this time

Forecast for: YMHB (HOBART/TASMANIA , AU)
Text: TAF YMHB 051411Z 0515/0612 31018G30KT 9999 FEW040
Forecast period: 1500 to 2000 UTC 05 August 2021
Forecast type: FROM: standard forecast or significant change
Winds: from the NW (310 degrees) at 21 MPH (18 knots; 9.3 m/s)
gusting to 34 MPH (30 knots; 15.4 m/s)
Visibility: 6 or more miles (10+ km)
Ceiling: at least 12,000 feet AGL
Clouds: few clouds at 4000 feet AGL
Weather: no significant weather forecast for this period
Text: FM052000 30014KT 9999 SCT030
Forecast period: 2000 UTC 05 August 2021 to 0300 UTC 06 August 2021
Forecast type: FROM: standard forecast or significant change
Winds: from the WNW (300 degrees) at 16 MPH (14 knots; 7.2 m/s)
Visibility: 6 or more miles (10+ km)
Ceiling: at least 12,000 feet AGL
Clouds: scattered clouds at 3000 feet AGL
Weather: no significant weather forecast for this period
Text: FM060300 24012KT 9999 -SHRA SCT030
Forecast period: 0300 to 1200 UTC 06 August 2021
Forecast type: FROM: standard forecast or significant change
Winds: from the WSW (240 degrees) at 14 MPH (12 knots; 6.2 m/s)
Visibility: 6 or more miles (10+ km)
Ceiling: at least 12,000 feet AGL
Clouds: scattered clouds at 3000 feet AGL
Weather: -SHRA  (light rain showers)



© 2013 - 2021, FlightSimLog.org - Powered by Virtual Airlines Manager